Altus AFB, Oklahoma
Current Conditions -  °F | °C
As of 1:58 PM on Wednesday 28 Jan 2015 (Local Time) from KLTS Reporting Station
Clear Clear  
Wind Chill: 80°   Ceiling: Unl
Heat Index: 80°   Visibility: 10mi
Dew Point: 44°   Wind: 18mph
Humidity: 28%   Direction: 180°S
Pressure: 29.89"   Gusts: 25mph
Location:  34.65°N, 99.28°W
Report Text: KLTS 281958Z 18016G22KT 10SM CLR 27/07 A2989 RMK AO2A PK WND 22027/40 SLPNO T02690067 $
Loading
Personal Weather Stations






























Interactive Weather Map New forecast layout! Learn more

10-Day Weather Forecast

Advertisements
Track Severe Weather on mobile